Time;durP1;ratioP1;P1;durP2;ratioP2;P2;SDS_P1;SDS_P2;PMS_P1;PMS_P2;Temp;Humidity;BMP_temperature;BMP_pressure;BME280_temperature;BME280_humidity;BME280_pressure;Samples;Min_cycle;Max_cycle;Signal;HPM_P1;HPM_P2
2021/06/24 00:00:59;;;;;;;49.38;11.88;;;;;;;24.57;62.33;99633.36;1746229;81;21008;-78
2021/06/24 00:03:30;;;;;;;46.92;11.03;;;;;;;24.52;62.53;99633.42;1708431;84;21076;-79
2021/06/24 00:05:57;;;;;;;40.38;10.13;;;;;;;24.46;62.78;99629.36;1734834;82;21013;-76
2021/06/24 00:08:24;;;;;;;43.63;11.22;;;;;;;24.37;62.96;99628.19;1737503;82;21063;-78
2021/06/24 00:10:51;;;;;;;41.92;10.72;;;;;;;24.29;63.19;99623.47;1729607;81;21032;-77
2021/06/24 00:13:18;;;;;;;49.93;11.85;;;;;;;24.19;63.46;99618.42;1717752;81;21499;-78
2021/06/24 00:15:44;;;;;;;49.35;11.45;;;;;;;24.20;63.53;99620.09;1724649;81;21024;-77
2021/06/24 00:18:10;;;;;;;41.28;10.43;;;;;;;24.31;63.38;99621.38;1708821;84;21040;-78
2021/06/24 00:20:39;;;;;;;40.28;10.10;;;;;;;24.35;63.19;99618.09;1742037;81;21543;-78
2021/06/24 00:23:07;;;;;;;51.25;10.68;;;;;;;24.34;63.18;99616.41;1735803;82;21048;-78
2021/06/24 00:25:33;;;;;;;44.98;10.93;;;;;;;24.36;63.06;99622.47;1742471;81;21504;-77
2021/06/24 00:27:59;;;;;;;43.80;10.45;;;;;;;24.36;62.98;99618.91;1744632;81;22236;-76
2021/06/24 00:30:26;;;;;;;51.20;9.60;;;;;;;24.36;62.92;99617.56;1739929;81;21512;-76
2021/06/24 00:32:52;;;;;;;40.88;9.55;;;;;;;24.37;62.81;99616.03;1719816;81;21020;-76
2021/06/24 00:35:19;;;;;;;48.28;10.60;;;;;;;24.52;62.43;99619.09;1733609;82;21051;-78
2021/06/24 00:37:47;;;;;;;52.85;9.95;;;;;;;24.57;62.28;99615.26;1733714;81;21083;-75
2021/06/24 00:40:14;;;;;;;48.20;10.30;;;;;;;24.54;62.23;99615.15;1720807;81;21064;-75
2021/06/24 00:42:41;;;;;;;39.90;10.63;;;;;;;24.51;62.24;99615.53;1752025;81;21019;-76
2021/06/24 00:45:10;;;;;;;42.33;11.43;;;;;;;24.50;62.30;99619.30;1720940;81;21073;-77
2021/06/24 00:47:37;;;;;;;38.30;9.38;;;;;;;24.44;62.44;99616.55;1700345;84;21101;-77
2021/06/24 00:50:06;;;;;;;45.88;11.33;;;;;;;24.45;62.52;99608.77;1700579;84;21625;-77
2021/06/24 00:52:32;;;;;;;44.88;10.75;;;;;;;24.48;62.43;99613.78;1734752;81;21082;-77
2021/06/24 00:54:59;;;;;;;50.05;10.78;;;;;;;24.34;62.76;99611.02;1717135;81;21001;-77
2021/06/24 00:57:26;;;;;;;51.18;11.00;;;;;;;24.25;63.11;99608.70;1742485;81;21020;-77
2021/06/24 00:59:53;;;;;;;54.38;10.98;;;;;;;24.19;63.45;99602.22;1762885;81;20928;-77
2021/06/24 01:02:20;;;;;;;51.60;10.80;;;;;;;24.17;63.72;99602.42;1707045;81;21047;-77
2021/06/24 01:04:47;;;;;;;49.38;10.78;;;;;;;24.27;63.77;99607.47;1732877;81;21016;-77
2021/06/24 01:07:14;;;;;;;43.13;11.20;;;;;;;24.36;63.67;99609.45;1747571;81;21060;-77
2021/06/24 01:09:42;;;;;;;58.92;12.07;;;;;;;24.34;63.78;99610.19;1726147;83;21487;-77
2021/06/24 01:12:09;;;;;;;41.50;10.20;;;;;;;24.31;63.96;99612.78;1742632;81;21048;-77
2021/06/24 01:14:36;;;;;;;59.00;11.68;;;;;;;24.30;64.02;99615.69;1762873;81;21055;-76
2021/06/24 01:17:03;;;;;;;61.28;12.35;;;;;;;24.38;63.90;99614.97;1763464;81;21012;-76
2021/06/24 01:19:32;;;;;;;52.55;12.05;;;;;;;24.35;63.93;99612.69;1709059;81;21071;-77
2021/06/24 01:21:59;;;;;;;49.88;10.55;;;;;;;24.29;64.10;99616.19;1718959;81;20960;-76
2021/06/24 01:24:26;;;;;;;46.90;11.78;;;;;;;24.23;64.24;99614.28;1756816;81;20983;-77
2021/06/24 01:26:54;;;;;;;50.78;10.68;;;;;;;24.26;64.24;99607.14;1732719;81;20993;-76
2021/06/24 01:29:21;;;;;;;46.02;11.15;;;;;;;24.26;64.26;99604.44;1706477;81;21464;-76
2021/06/24 01:31:48;;;;;;;51.70;10.23;;;;;;;24.20;64.38;99610.64;1758709;81;21489;-76
2021/06/24 01:34:14;;;;;;;48.98;10.55;;;;;;;24.16;64.53;99614.79;1728627;81;21127;-77
2021/06/24 01:36:41;;;;;;;48.00;10.00;;;;;;;24.21;64.51;99610.97;1714659;82;20991;-77
2021/06/24 01:39:11;;;;;;;54.70;10.90;;;;;;;24.23;64.43;99616.16;1731059;81;21047;-77
2021/06/24 01:41:37;;;;;;;53.80;11.18;;;;;;;24.18;64.52;99615.41;1765908;81;21884;-78
2021/06/24 01:44:06;;;;;;;52.30;11.60;;;;;;;24.03;64.67;99604.75;1727906;81;21083;-79
2021/06/24 01:46:33;;;;;;;38.35;10.15;;;;;;;24.14;64.67;99610.91;1730551;81;21563;-78
2021/06/24 01:49:00;;;;;;;37.98;10.32;;;;;;;24.17;64.59;99605.13;1731013;82;21118;-78
2021/06/24 01:51:28;;;;;;;48.95;10.53;;;;;;;24.14;64.71;99612.79;1725732;82;21534;-77
2021/06/24 01:56:38;;;;;;;50.08;11.30;;;;;;;24.07;64.89;99612.77;1806832;79;22234;-70
2021/06/24 01:59:07;;;;;;;50.35;10.70;;;;;;;24.09;64.70;99611.20;1759774;81;21060;-72
2021/06/24 02:01:40;;;;;;;47.40;10.58;;;;;;;24.04;64.72;99618.05;1767694;81;21036;-72
2021/06/24 02:04:13;;;;;;;58.75;11.65;;;;;;;23.96;64.87;99614.14;1778292;81;21054;-73
2021/06/24 02:06:41;;;;;;;51.80;11.30;;;;;;;23.98;64.91;99618.02;1769110;81;21504;-73
2021/06/24 02:09:11;;;;;;;57.70;11.50;;;;;;;23.99;64.78;99617.81;1760842;81;21025;-73
2021/06/24 02:11:55;;;;;;;59.23;11.00;;;;;;;23.94;64.86;99617.58;1745524;81;20985;-73
2021/06/24 02:14:21;;;;;;;51.30;10.38;;;;;;;23.88;64.98;99623.20;1749447;81;20973;-73
2021/06/24 02:16:49;;;;;;;41.70;10.10;;;;;;;23.90;65.02;99617.59;1770982;81;20992;-73
2021/06/24 02:19:17;;;;;;;49.63;11.12;;;;;;;23.94;64.91;99618.93;1731378;83;21564;-73
2021/06/24 02:22:00;;;;;;;42.08;11.30;;;;;;;23.88;64.96;99627.78;1752202;81;21501;-73
2021/06/24 02:24:30;;;;;;;45.55;10.43;;;;;;;23.82;65.06;99625.88;1759007;81;20996;-73
2021/06/24 02:26:58;;;;;;;55.23;10.53;;;;;;;23.84;65.04;99629.22;1764876;81;20992;-72
2021/06/24 02:29:30;;;;;;;55.23;11.18;;;;;;;23.92;64.83;99629.61;1771248;81;20985;-72
2021/06/24 02:31:58;;;;;;;46.15;10.28;;;;;;;23.92;64.77;99633.66;1754593;81;21036;-73
2021/06/24 02:34:45;;;;;;;52.80;10.40;;;;;;;23.89;64.73;99626.76;1729442;83;21056;-72
2021/06/24 02:37:15;;;;;;;53.23;10.95;;;;;;;23.89;64.68;99629.45;1707023;83;21013;-73
2021/06/24 02:39:43;;;;;;;49.93;10.68;;;;;;;23.97;64.41;99621.22;1682001;82;20989;-73
2021/06/24 02:42:10;;;;;;;53.28;11.40;;;;;;;23.98;64.34;99621.54;1725138;83;21020;-73
2021/06/24 02:44:38;;;;;;;43.45;10.78;;;;;;;23.96;64.25;99627.64;1730219;82;21041;-72
2021/06/24 02:47:07;;;;;;;46.40;10.30;;;;;;;23.94;64.12;99629.73;1706066;82;20989;-72
2021/06/24 02:49:34;;;;;;;48.92;10.05;;;;;;;24.01;63.91;99624.36;1701625;83;21004;-73
2021/06/24 02:52:02;;;;;;;50.78;11.88;;;;;;;24.09;63.62;99630.12;1717053;83;20984;-73
2021/06/24 02:54:30;;;;;;;39.75;10.03;;;;;;;24.09;63.55;99631.47;1723148;83;21036;-73
2021/06/24 02:56:58;;;;;;;46.15;9.80;;;;;;;24.11;63.37;99631.58;1709574;83;21008;-72
2021/06/24 02:59:43;;;;;;;44.65;9.98;;;;;;;24.13;63.28;99632.73;1714162;83;21013;-72
2021/06/24 03:02:10;;;;;;;52.53;10.18;;;;;;;24.23;62.77;99635.90;1715803;83;21005;-73
2021/06/24 03:04:39;;;;;;;48.38;9.73;;;;;;;24.37;62.38;99639.50;1714053;83;21013;-72
2021/06/24 03:07:06;;;;;;;40.03;9.15;;;;;;;24.43;62.05;99639.23;1695511;83;21025;-72
2021/06/24 03:09:36;;;;;;;44.40;9.93;;;;;;;24.46;61.89;99637.46;1697116;83;21053;-72
2021/06/24 03:12:04;;;;;;;46.10;10.10;;;;;;;24.47;61.89;99644.54;1707251;83;21627;-73
2021/06/24 03:14:33;;;;;;;45.52;9.65;;;;;;;24.47;61.89;99640.48;1711698;83;21025;-73
2021/06/24 03:17:01;;;;;;;39.13;9.15;;;;;;;24.48;61.90;99642.16;1721442;83;21073;-73
2021/06/24 03:19:28;;;;;;;39.03;10.48;;;;;;;24.51;61.94;99634.45;1711958;83;20988;-73
2021/06/24 03:21:56;;;;;;;45.88;10.43;;;;;;;24.59;61.91;99636.17;1708773;82;21029;-73
2021/06/24 03:24:24;;;;;;;59.27;11.00;;;;;;;24.64;61.79;99636.44;1706711;83;21049;-73
2021/06/24 03:26:51;;;;;;;51.42;10.20;;;;;;;24.73;61.41;99634.89;1717347;83;21006;-73
2021/06/24 03:29:18;;;;;;;53.23;10.18;;;;;;;24.85;60.75;99641.38;1694226;83;21060;-72
2021/06/24 03:31:46;;;;;;;50.80;11.10;;;;;;;24.98;60.22;99638.69;1705900;83;21611;-73
2021/06/24 03:34:14;;;;;;;52.75;10.48;;;;;;;25.17;59.82;99642.47;1696505;83;21056;-72
2021/06/24 03:36:46;;;;;;;48.98;10.05;;;;;;;25.51;59.15;99635.73;1717324;83;20989;-72
2021/06/24 03:39:13;;;;;;;47.93;10.72;;;;;;;25.91;58.11;99635.71;1710079;83;21021;-73
2021/06/24 03:41:39;;;;;;;43.35;10.10;;;;;;;26.26;57.18;99628.65;1712555;83;21520;-73
2021/06/24 03:44:06;;;;;;;43.10;9.90;;;;;;;26.60;56.41;99625.28;1712767;83;21580;-73
2021/06/24 03:46:34;;;;;;;43.13;9.83;;;;;;;26.94;55.78;99619.16;1717162;83;21045;-73
2021/06/24 03:49:02;;;;;;;45.40;9.58;;;;;;;27.29;54.72;99618.71;1717836;83;21551;-73
2021/06/24 03:51:29;;;;;;;48.20;8.45;;;;;;;27.63;53.84;99622.52;1715063;83;21084;-73
2021/06/24 03:54:00;;;;;;;51.40;10.60;;;;;;;27.98;53.01;99619.77;1693151;83;21033;-73
2021/06/24 03:56:29;;;;;;;53.28;9.68;;;;;;;28.34;52.15;99611.33;1703894;83;21132;-73
2021/06/24 03:58:58;;;;;;;43.63;8.83;;;;;;;28.69;51.24;99617.50;1716869;82;20993;-73
2021/06/24 04:01:25;;;;;;;42.95;8.45;;;;;;;28.99;50.41;99617.49;1703566;83;20989;-73
2021/06/24 04:03:51;;;;;;;46.13;9.63;;;;;;;29.32;49.53;99607.16;1688544;83;21037;-73
2021/06/24 04:06:23;;;;;;;44.38;8.98;;;;;;;29.63;48.65;99611.45;1701636;83;21064;-73
2021/06/24 04:08:52;;;;;;;40.55;9.20;;;;;;;29.88;47.61;99609.84;1712496;84;21068;-72
2021/06/24 04:11:24;;;;;;;49.73;8.78;;;;;;;30.13;47.16;99616.93;1714582;83;21006;-72
2021/06/24 04:13:52;;;;;;;44.00;8.18;;;;;;;30.35;46.11;99618.47;1715704;83;21041;-73
2021/06/24 04:16:37;;;;;;;37.03;7.47;;;;;;;30.51;45.65;99623.73;1699691;83;21013;-72
2021/06/24 04:19:05;;;;;;;35.25;8.05;;;;;;;30.73;44.76;99618.41;1698964;83;21021;-72
2021/06/24 04:21:31;;;;;;;53.17;8.63;;;;;;;30.93;44.20;99614.39;1703825;83;21013;-72
2021/06/24 04:23:58;;;;;;;35.65;8.25;;;;;;;30.96;43.84;99608.97;1702475;83;21040;-73
2021/06/24 04:26:27;;;;;;;32.05;7.15;;;;;;;30.94;43.91;99609.77;1712170;84;21076;-73
2021/06/24 04:28:55;;;;;;;36.03;7.15;;;;;;;30.83;43.73;99615.58;1702941;83;21085;-73
2021/06/24 04:31:22;;;;;;;38.10;7.55;;;;;;;30.62;43.82;99619.84;1690575;83;21116;-73
2021/06/24 04:33:49;;;;;;;33.98;6.95;;;;;;;30.44;43.80;99618.06;1704639;83;21021;-72
2021/06/24 04:36:23;;;;;;;28.70;7.20;;;;;;;30.28;43.70;99614.22;1703344;83;21072;-73
2021/06/24 04:38:52;;;;;;;32.80;6.70;;;;;;;30.09;43.98;99613.00;1709080;83;21593;-73
2021/06/24 04:41:19;;;;;;;34.63;7.75;;;;;;;29.97;43.86;99613.58;1704179;83;21489;-75
2021/06/24 04:43:48;;;;;;;27.90;6.62;;;;;;;29.93;43.81;99608.31;1703731;83;21084;-73
2021/06/24 04:46:15;;;;;;;31.77;6.83;;;;;;;29.98;43.67;99615.24;1716867;82;21029;-74
2021/06/24 04:48:47;;;;;;;32.63;7.10;;;;;;;30.09;43.96;99622.55;1708841;82;21033;-75
2021/06/24 04:51:32;;;;;;;32.25;6.90;;;;;;;30.24;43.53;99622.89;1712498;83;21096;-72
2021/06/24 04:53:59;;;;;;;30.12;7.12;;;;;;;30.31;43.03;99619.18;1689210;83;21048;-72
2021/06/24 04:56:27;;;;;;;34.90;6.55;;;;;;;30.33;42.58;99617.05;1728932;82;21096;-72
2021/06/24 04:58:55;;;;;;;31.12;6.95;;;;;;;30.32;42.60;99614.02;1737463;82;21535;-74
2021/06/24 05:01:40;;;;;;;34.33;6.90;;;;;;;30.37;42.68;99618.22;1728282;83;21556;-74
2021/06/24 05:04:25;;;;;;;23.57;6.28;;;;;;;30.40;42.49;99617.75;1724578;82;21005;-73
2021/06/24 05:06:54;;;;;;;28.20;5.55;;;;;;;30.33;41.11;99625.23;1713288;83;21009;-72
2021/06/24 05:09:28;;;;;;;27.65;6.28;;;;;;;30.19;40.77;99625.52;1736045;82;21104;-73
2021/06/24 05:11:51;;;;;;;32.00;6.72;;;;;;;30.13;41.21;99626.99;1731492;82;20982;-73
2021/06/24 05:14:18;;;;;;;26.82;6.37;;;;;;;30.02;41.26;99623.23;1732637;82;21067;-72
2021/06/24 05:16:47;;;;;;;28.70;6.60;;;;;;;29.89;41.00;99622.41;1721321;82;21059;-72
2021/06/24 05:19:14;;;;;;;34.58;6.92;;;;;;;29.80;41.49;99627.05;1716283;82;21079;-73
2021/06/24 05:21:40;;;;;;;27.07;6.90;;;;;;;29.75;42.17;99620.97;1724923;82;21040;-75
2021/06/24 05:24:08;;;;;;;28.95;6.30;;;;;;;29.72;42.38;99623.64;1730892;82;21048;-77
2021/06/24 05:26:37;;;;;;;34.15;6.20;;;;;;;29.68;42.20;99621.10;1725797;82;21055;-73
2021/06/24 05:29:03;;;;;;;27.73;7.35;;;;;;;29.70;41.85;99629.03;1712558;81;21071;-74
2021/06/24 05:31:31;;;;;;;29.85;6.42;;;;;;;29.69;41.78;99624.64;1737578;81;21088;-74
2021/06/24 05:33:59;;;;;;;34.67;7.30;;;;;;;29.69;41.71;99626.00;1729529;81;21027;-77
2021/06/24 05:36:25;;;;;;;30.85;6.42;;;;;;;29.67;41.91;99624.89;1718951;83;21001;-75
2021/06/24 05:38:52;;;;;;;32.63;6.80;;;;;;;29.67;42.17;99626.25;1717389;81;21023;-76
2021/06/24 05:41:18;;;;;;;26.50;6.47;;;;;;;29.71;42.39;99627.97;1719427;82;21016;-77
2021/06/24 05:43:44;;;;;;;25.95;6.08;;;;;;;29.78;41.59;99625.94;1725853;82;21050;-75
2021/06/24 05:46:11;;;;;;;31.30;6.25;;;;;;;29.86;41.64;99628.83;1732233;81;21561;-75
2021/06/24 05:48:38;;;;;;;29.42;6.67;;;;;;;29.94;41.78;99631.24;1727763;83;21059;-74
2021/06/24 05:51:04;;;;;;;33.02;7.92;;;;;;;30.10;41.62;99628.30;1746097;81;21527;-75
2021/06/24 05:53:32;;;;;;;35.33;6.62;;;;;;;30.22;41.63;99623.66;1732079;81;21028;-75
2021/06/24 05:56:00;;;;;;;37.53;7.85;;;;;;;30.33;41.25;99625.23;1719019;81;21024;-75
2021/06/24 05:58:32;;;;;;;27.30;6.28;;;;;;;30.40;40.93;99623.20;1715056;83;21001;-74
2021/06/24 06:00:57;;;;;;;30.90;6.40;;;;;;;30.46;40.96;99620.87;1683100;82;21024;-75
2021/06/24 06:03:24;;;;;;;25.70;6.15;;;;;;;30.57;41.19;99634.20;1687488;82;21024;-75
2021/06/24 06:05:52;;;;;;;30.15;6.33;;;;;;;30.68;40.72;99621.56;1709545;82;20990;-75
2021/06/24 06:08:18;;;;;;;25.65;6.75;;;;;;;30.79;40.71;99622.05;1721306;82;21524;-75
2021/06/24 06:10:44;;;;;;;30.48;6.25;;;;;;;30.86;40.55;99624.66;1720929;82;21584;-75
2021/06/24 06:13:12;;;;;;;30.12;6.83;;;;;;;30.92;39.91;99628.29;1695187;82;21523;-75
2021/06/24 06:15:40;;;;;;;23.18;6.55;;;;;;;30.99;40.17;99627.61;1689440;83;21513;-75
2021/06/24 06:18:13;;;;;;;29.65;6.25;;;;;;;31.01;40.51;99626.29;1702752;82;21012;-77
2021/06/24 06:20:40;;;;;;;31.48;6.28;;;;;;;31.10;40.38;99621.28;1703529;83;21463;-81
2021/06/24 06:23:06;;;;;;;39.18;6.85;;;;;;;31.08;40.27;99622.06;1695834;82;21552;-83
2021/06/24 06:25:32;;;;;;;24.70;6.08;;;;;;;31.07;40.39;99623.12;1745840;82;21052;-79
2021/06/24 06:28:00;;;;;;;41.83;7.55;;;;;;;31.08;40.22;99621.25;1707273;83;21057;-78
2021/06/24 06:30:26;;;;;;;36.88;7.25;;;;;;;31.11;39.89;99620.19;1718826;82;21045;-78
2021/06/24 06:32:54;;;;;;;40.30;7.37;;;;;;;31.16;40.24;99617.55;1723422;82;21045;-74
2021/06/24 06:35:20;;;;;;;36.28;7.28;;;;;;;31.21;39.94;99609.98;1727051;82;21024;-75
2021/06/24 06:37:47;;;;;;;26.97;6.15;;;;;;;31.28;39.55;99613.91;1728675;82;20989;-78
2021/06/24 06:40:13;;;;;;;35.30;7.55;;;;;;;31.32;39.48;99612.33;1712087;82;21016;-77
2021/06/24 06:42:41;;;;;;;31.10;6.90;;;;;;;31.42;39.41;99602.11;1715537;82;20966;-77
2021/06/24 06:45:10;;;;;;;33.25;7.05;;;;;;;31.57;39.34;99608.36;1722964;82;20998;-77
2021/06/24 06:47:36;;;;;;;34.45;7.00;;;;;;;31.62;38.83;99597.50;1716906;82;21056;-75
2021/06/24 06:50:03;;;;;;;39.83;7.72;;;;;;;31.66;39.08;99600.86;1708117;83;21508;-75
2021/06/24 06:52:30;;;;;;;39.70;8.15;;;;;;;31.39;38.79;99543.33;1720512;82;21024;-75
2021/06/24 06:54:56;;;;;;;35.92;8.05;;;;;;;31.86;39.13;99598.14;1729018;82;21064;-75
2021/06/24 06:57:22;;;;;;;28.38;6.80;;;;;;;31.91;38.72;99594.63;1694487;82;21562;-75
2021/06/24 06:59:49;;;;;;;30.77;6.70;;;;;;;31.88;38.70;99597.33;1694093;82;21035;-75
2021/06/24 07:02:16;;;;;;;30.00;7.00;;;;;;;31.79;39.04;99593.39;1704848;82;21024;-75
2021/06/24 07:04:44;;;;;;;31.17;7.08;;;;;;;31.72;39.40;99591.39;1734161;82;21016;-77
2021/06/24 07:07:10;;;;;;;38.92;7.47;;;;;;;31.71;39.42;99594.64;1722337;82;21065;-75
2021/06/24 07:09:36;;;;;;;25.25;6.60;;;;;;;31.72;39.52;99592.20;1731945;82;21051;-76
2021/06/24 07:12:04;;;;;;;29.42;7.75;;;;;;;31.75;39.73;99601.81;1729652;81;21057;-76
2021/06/24 07:14:31;;;;;;;38.70;7.78;;;;;;;31.83;39.70;99603.58;1720732;82;21013;-77
2021/06/24 07:16:57;;;;;;;32.73;9.08;;;;;;;31.85;39.61;99604.13;1727255;82;21029;-78
2021/06/24 07:19:24;;;;;;;36.25;7.92;;;;;;;31.90;39.72;99607.48;1721808;82;21005;-76
2021/06/24 07:21:51;;;;;;;50.45;22.90;;;;;;;31.93;39.85;99608.89;1722697;82;21072;-74
2021/06/24 07:24:19;;;;;;;48.38;23.83;;;;;;;31.98;40.03;99613.06;1719752;82;21001;-73
2021/06/24 07:26:45;;;;;;;45.35;25.10;;;;;;;31.97;40.32;99608.66;1710673;82;20985;-74
2021/06/24 07:29:11;;;;;;;44.13;16.40;;;;;;;31.97;39.64;99608.14;1722169;82;21009;-74
2021/06/24 07:31:39;;;;;;;31.48;7.35;;;;;;;31.93;39.79;99612.98;1720657;82;21135;-74
2021/06/24 07:34:05;;;;;;;33.08;7.17;;;;;;;31.91;40.39;99621.97;1717429;82;21005;-74
2021/06/24 07:36:31;;;;;;;28.50;8.00;;;;;;;31.93;39.97;99617.09;1717213;82;21017;-74
2021/06/24 07:38:58;;;;;;;33.38;8.30;;;;;;;32.02;40.57;99619.14;1721976;82;21056;-76
2021/06/24 07:41:26;;;;;;;31.05;7.62;;;;;;;32.14;40.20;99616.28;1728177;82;20974;-75
2021/06/24 07:43:53;;;;;;;32.17;7.20;;;;;;;32.23;40.31;99613.12;1721667;82;21508;-77
2021/06/24 07:46:23;;;;;;;32.70;7.83;;;;;;;32.27;39.97;99622.49;1728009;82;21539;-75
2021/06/24 07:50:24;;;;;;;30.05;6.78;;;;;;;32.30;39.34;99626.08;1801403;78;22503;-77
2021/06/24 07:52:51;;;;;;;36.00;7.90;;;;;;;32.18;39.37;99624.29;1782792;80;21043;-74
2021/06/24 07:55:17;;;;;;;19.95;6.05;;;;;;;32.11;39.73;99627.74;1783301;79;20958;-76
2021/06/24 07:57:44;;;;;;;29.23;7.85;;;;;;;32.06;40.44;99629.05;1779379;80;22301;-73
2021/06/24 08:00:11;;;;;;;30.43;7.22;;;;;;;31.98;40.93;99629.47;1774792;79;21066;-73
2021/06/24 08:02:40;;;;;;;30.75;7.20;;;;;;;31.91;40.67;99632.91;1782747;80;21052;-72
2021/06/24 08:05:07;;;;;;;28.07;7.12;;;;;;;31.87;41.05;99631.25;1782732;79;20969;-74
2021/06/24 08:07:37;;;;;;;29.45;6.85;;;;;;;31.88;40.69;99623.30;1784411;79;21015;-75
2021/06/24 08:10:05;;;;;;;23.47;6.85;;;;;;;31.81;40.88;99624.86;1783913;80;21040;-74
2021/06/24 08:12:31;;;;;;;27.22;6.30;;;;;;;31.74;40.92;99625.59;1787438;79;21016;-75
2021/06/24 08:14:59;;;;;;;32.10;6.28;;;;;;;31.75;41.01;99620.39;1758923;80;21004;-74
2021/06/24 08:17:25;;;;;;;35.65;7.22;;;;;;;31.76;41.10;99620.69;1774712;79;21570;-75
2021/06/24 08:19:52;;;;;;;29.07;6.87;;;;;;;31.83;41.19;99630.92;1779765;80;20984;-75
2021/06/24 08:22:18;;;;;;;29.63;7.17;;;;;;;31.88;40.83;99621.94;1774735;79;21055;-74
2021/06/24 08:27:40;;;;;;;25.08;6.55;;;;;;;31.98;40.57;99624.00;1742476;78;67477;-77
2021/06/24 08:30:08;;;;;;;30.30;6.95;;;;;;;31.99;39.81;99629.20;1712476;84;21029;-77
2021/06/24 08:32:35;;;;;;;23.07;6.15;;;;;;;32.00;39.68;99627.31;1713019;83;21981;-78
2021/06/24 08:35:01;;;;;;;27.45;6.37;;;;;;;32.04;39.48;99627.09;1712517;84;21088;-82
2021/06/24 08:37:28;;;;;;;26.62;6.40;;;;;;;32.04;39.40;99632.56;1712464;84;21096;-83
2021/06/24 08:39:54;;;;;;;25.43;5.80;;;;;;;32.10;39.48;99627.97;1712762;84;21146;-82
2021/06/24 08:42:20;;;;;;;30.88;6.25;;;;;;;32.16;39.31;99627.81;1713332;84;21096;-83
2021/06/24 08:44:47;;;;;;;23.22;5.92;;;;;;;32.24;39.92;99628.45;1715216;78;64974;-75
2021/06/24 08:47:15;;;;;;;31.20;6.17;;;;;;;32.31;39.39;99629.11;1733848;81;21063;-76
2021/06/24 08:49:51;;;;;;;33.88;11.48;;;;;;;32.37;39.32;99628.09;1713656;81;21004;-82
2021/06/24 08:52:17;;;;;;;41.15;19.05;;;;;;;32.43;39.77;99630.33;1744825;81;21075;-82
2021/06/24 08:57:45;;;;;;;35.98;7.08;;;;;;;32.51;38.89;99634.00;1784781;80;21950;-84
2021/06/24 09:00:13;;;;;;;27.27;7.45;;;;;;;32.57;39.52;99626.11;1757328;82;20990;-80
2021/06/24 09:06:12;;;;;;;25.20;6.35;;;;;;;32.74;39.31;99626.59;1756730;82;21084;-84
2021/06/24 09:08:54;;;;;;;23.95;6.50;;;;;;;32.76;40.04;99626.61;1754151;82;21897;-82
2021/06/24 09:11:28;;;;;;;;;;;;;;;32.74;39.82;99627.43;1759778;82;21496;-78
2021/06/24 09:14:17;;;;;;;23.47;6.28;;;;;;;32.80;39.13;99620.08;1753211;82;20138;-81
2021/06/24 09:16:46;;;;;;;24.60;6.10;;;;;;;32.87;39.91;99619.34;1688495;84;21043;-68
2021/06/24 09:19:26;;;;;;;21.27;5.80;;;;;;;32.91;39.55;99619.66;1697181;84;21051;-70
2021/06/24 09:22:01;;;;;;;22.50;5.72;;;;;;;32.95;39.09;99622.16;1725600;82;21090;-67
